Decker, Michigan
Current Conditions -  °F | °C
As of 11:45 PM on Friday 28 Nov 2014 (Local Time) from KCFS Reporting Station
Overcast Overcast  
Wind Chill: 18°   Ceiling: 3900
Heat Index: 25°   Visibility: 7mi
Dew Point: 23°   Wind: 6mph
Humidity: 93%   Direction: 130°SE
Pressure: 30.06"   Gusts: NA
Location:  43.46°N, 83.05°W
Report Text: KCFS 290445Z AUTO 13005KT 7SM BKN039 OVC075 M04/M05 A3006 RMK AO2
Loading
Personal Weather Stations






























Interactive Weather Map New forecast layout! Learn more

10-Day Weather Forecast

Advertisements
Track Severe Weather on mobile